createdAt,value
2019-05-30T00:00:09.971Z,14.98
2019-05-30T00:00:41.248Z,15.04
2019-05-30T00:01:21.613Z,15.09
2019-05-30T00:02:02.582Z,15.09
2019-05-30T00:02:42.449Z,15.05
2019-05-30T00:03:22.858Z,15.11
2019-05-30T00:04:04.520Z,15.15
2019-05-30T00:04:43.726Z,15.18
2019-05-30T00:05:24.110Z,15.19
2019-05-30T00:06:04.703Z,15.2
2019-05-30T00:06:44.962Z,15.31
2019-05-30T00:07:25.390Z,15.34
2019-05-30T00:08:05.783Z,15.34
2019-05-30T00:08:46.209Z,15.33
2019-05-30T00:09:26.626Z,15.33
2019-05-30T00:10:07.021Z,15.41
2019-05-30T00:10:47.419Z,15.38
2019-05-30T00:11:27.836Z,15.41
2019-05-30T00:12:08.222Z,15.41
2019-05-30T00:12:48.605Z,15.46
2019-05-30T00:13:28.993Z,15.44
2019-05-30T00:14:09.423Z,15.41
2019-05-30T00:14:49.824Z,15.51
2019-05-30T00:16:10.639Z,15.37
2019-05-30T00:16:51.045Z,15.41
2019-05-30T00:17:31.456Z,15.3
2019-05-30T00:18:11.879Z,15.3
2019-05-30T00:18:52.299Z,15.27
2019-05-30T00:19:33.898Z,15.3
2019-05-30T00:20:13.133Z,15.38
2019-05-30T00:20:54.680Z,15.37
2019-05-30T00:21:33.974Z,15.33
2019-05-30T00:23:46.577Z,15.41
2019-05-30T00:24:27.906Z,15.38
2019-05-30T00:25:08.300Z,15.43
2019-05-30T00:25:48.712Z,15.49
2019-05-30T00:26:29.154Z,15.41
2019-05-30T00:27:09.567Z,15.41
2019-05-30T00:27:49.971Z,15.44
2019-05-30T00:28:30.385Z,15.41
2019-05-30T00:29:10.803Z,15.38
2019-05-30T00:29:51.227Z,15.38
2019-05-30T00:30:31.648Z,15.38
2019-05-30T00:31:12.078Z,15.43
2019-05-30T00:31:52.498Z,15.4
2019-05-30T00:32:32.917Z,15.44
2019-05-30T00:33:13.348Z,15.46
2019-05-30T00:33:53.767Z,15.48
2019-05-30T00:37:32.416Z,15.51
2019-05-30T00:38:12.837Z,15.41
2019-05-30T00:38:53.248Z,15.41
2019-05-30T00:39:33.646Z,15.41
2019-05-30T00:40:14.048Z,15.48
2019-05-30T00:40:55.710Z,15.37
2019-05-30T00:41:34.815Z,15.41
2019-05-30T00:42:15.242Z,15.37
2019-05-30T00:42:55.905Z,15.41
2019-05-30T00:43:36.107Z,15.33
2019-05-30T00:44:16.515Z,15.38
2019-05-30T00:44:57.843Z,15.35
2019-05-30T00:45:37.372Z,15.4
2019-05-30T00:46:17.799Z,15.37
2019-05-30T00:46:58.219Z,15.37
2019-05-30T00:47:38.649Z,15.34
2019-05-30T00:48:19.071Z,15.38
2019-05-30T00:49:00.167Z,15.38
2019-05-30T00:49:39.908Z,15.37
2019-05-30T00:50:20.329Z,15.34
2019-05-30T00:51:00.739Z,15.37
2019-05-30T00:51:41.164Z,15.34
2019-05-30T00:52:21.560Z,15.3
2019-05-30T00:53:02.884Z,15.41
2019-05-30T00:53:42.417Z,15.38
2019-05-30T00:54:22.841Z,15.37
2019-05-30T00:55:03.275Z,15.41
2019-05-30T00:55:43.689Z,15.41
2019-05-30T00:56:24.116Z,15.27
2019-05-30T00:57:04.876Z,15.34
2019-05-30T00:57:44.972Z,15.22
2019-05-30T00:58:25.405Z,15.16
2019-05-30T00:59:06.912Z,15.2
2019-05-30T00:59:46.259Z,15.18
2019-05-30T01:00:41.866Z,15.12
2019-05-30T01:01:07.212Z,15.12
2019-05-30T01:01:47.515Z,15.15
2019-05-30T01:02:27.949Z,15.12
2019-05-30T01:03:08.949Z,14.98
2019-05-30T01:03:48.807Z,15.04
2019-05-30T01:04:29.225Z,14.95
2019-05-30T01:05:50.098Z,15.03
2019-05-30T01:06:30.500Z,14.97
2019-05-30T01:07:10.941Z,14.97
2019-05-30T01:07:51.353Z,14.94
2019-05-30T01:08:31.780Z,15.03
2019-05-30T01:09:12.209Z,15.05
2019-05-30T01:09:52.625Z,15
2019-05-30T01:10:33.035Z,14.93
2019-05-30T01:11:13.452Z,14.97
2019-05-30T01:11:53.888Z,15
2019-05-30T01:12:34.305Z,14.93
2019-05-30T01:13:14.732Z,14.93
2019-05-30T01:13:55.151Z,14.93
2019-05-30T01:14:35.564Z,14.87
2019-05-30T01:15:15.983Z,14.86
2019-05-30T01:15:56.855Z,14.82
2019-05-30T01:16:36.772Z,14.83
2019-05-30T01:17:17.172Z,14.75
2019-05-30T01:17:58.700Z,14.8
2019-05-30T01:18:37.967Z,14.83
2019-05-30T01:19:18.383Z,14.82
2019-05-30T01:19:59.059Z,14.79
2019-05-30T01:20:39.219Z,14.8
2019-05-30T01:21:19.659Z,14.71
2019-05-30T01:22:01.252Z,14.71
2019-05-30T01:23:20.911Z,14.67
2019-05-30T01:24:01.397Z,14.75
2019-05-30T01:24:41.757Z,14.72
2019-05-30T01:25:22.187Z,14.72
2019-05-30T01:26:03.421Z,14.75
2019-05-30T01:26:43.049Z,14.71
2019-05-30T01:27:23.495Z,14.61
2019-05-30T01:28:03.922Z,14.8
2019-05-30T01:28:44.360Z,14.63
2019-05-30T01:29:24.711Z,14.79
2019-05-30T01:30:05.702Z,14.66
2019-05-30T01:30:58.815Z,14.64
2019-05-30T01:31:25.900Z,14.72
2019-05-30T01:32:06.268Z,14.64
2019-05-30T01:32:46.675Z,14.64
2019-05-30T01:33:27.114Z,14.69
2019-05-30T01:34:07.903Z,14.64
2019-05-30T01:34:47.925Z,14.64
2019-05-30T01:35:28.318Z,14.74
2019-05-30T01:36:08.728Z,14.67
2019-05-30T01:36:49.143Z,14.71
2019-05-30T01:37:29.548Z,14.66
2019-05-30T01:38:09.933Z,14.64
2019-05-30T01:38:50.354Z,14.69
2019-05-30T01:39:30.783Z,14.69
2019-05-30T01:40:51.615Z,14.64
2019-05-30T01:41:31.999Z,14.67
2019-05-30T01:42:12.428Z,14.61
2019-05-30T01:42:52.850Z,14.67
2019-05-30T01:43:33.279Z,14.53
2019-05-30T01:44:13.706Z,14.54
2019-05-30T01:44:54.142Z,14.57
2019-05-30T01:45:34.569Z,14.56
2019-05-30T01:46:14.976Z,14.53
2019-05-30T01:46:55.381Z,14.56
2019-05-30T01:47:35.810Z,14.57
2019-05-30T01:48:16.219Z,14.61
2019-05-30T01:48:56.636Z,14.57
2019-05-30T01:49:37.054Z,14.59
2019-05-30T01:50:17.464Z,14.52
2019-05-30T01:50:58.286Z,14.56
2019-05-30T01:51:38.312Z,14.63
2019-05-30T01:52:18.730Z,14.61
2019-05-30T01:53:00.303Z,14.56
2019-05-30T01:53:39.554Z,14.52
2019-05-30T01:54:19.986Z,14.6
2019-05-30T01:55:40.818Z,14.53
2019-05-30T01:56:21.241Z,14.54
2019-05-30T01:57:02.581Z,14.66
2019-05-30T01:57:42.109Z,14.64
2019-05-30T01:58:22.536Z,14.64
2019-05-30T01:59:02.958Z,14.63
2019-05-30T01:59:43.384Z,14.64
2019-05-30T02:00:23.809Z,14.67
2019-05-30T02:01:18.650Z,14.66
2019-05-30T02:01:44.629Z,14.63
2019-05-30T02:02:25.046Z,14.75
2019-05-30T02:03:05.474Z,14.8
2019-05-30T02:03:45.906Z,14.74
2019-05-30T02:04:26.321Z,14.74
2019-05-30T02:05:07.530Z,14.78
2019-05-30T02:05:47.179Z,14.72
2019-05-30T02:06:27.606Z,14.82
2019-05-30T02:07:09.137Z,14.82
2019-05-30T02:07:48.418Z,14.9
2019-05-30T02:08:28.767Z,14.9
2019-05-30T02:09:10.168Z,14.95
2019-05-30T02:09:49.600Z,14.93
2019-05-30T02:10:29.940Z,14.94
2019-05-30T02:11:10.347Z,14.91
2019-05-30T02:11:50.752Z,14.9
2019-05-30T02:12:31.169Z,14.93
2019-05-30T02:13:11.574Z,14.91
2019-05-30T02:13:52.023Z,14.94
2019-05-30T02:14:32.420Z,14.94
2019-05-30T02:15:12.857Z,14.93
2019-05-30T02:15:53.275Z,14.93
2019-05-30T02:16:33.704Z,14.94
2019-05-30T02:17:14.138Z,14.98
2019-05-30T02:17:54.554Z,15.01
2019-05-30T02:18:34.982Z,15.05
2019-05-30T02:19:15.418Z,15.01
2019-05-30T02:19:55.840Z,15.03
2019-05-30T02:21:43.184Z,15.01
2019-05-30T02:22:23.619Z,15.04
2019-05-30T02:23:06.050Z,15.04
2019-05-30T02:23:44.454Z,15.04
2019-05-30T02:24:24.887Z,15.01
2019-05-30T02:25:06.018Z,15.04
2019-05-30T02:25:45.723Z,15.05
2019-05-30T02:26:26.142Z,15.07
2019-05-30T02:27:06.564Z,15.07
2019-05-30T02:27:46.964Z,15.01
2019-05-30T02:28:27.375Z,15.04
2019-05-30T02:29:08.328Z,15.09
2019-05-30T02:29:48.193Z,15.04
2019-05-30T02:30:28.596Z,15
2019-05-30T02:31:10.018Z,15
2019-05-30T02:31:49.357Z,15.01
2019-05-30T02:32:29.718Z,14.95
2019-05-30T02:33:12.605Z,15.03
2019-05-30T02:33:50.508Z,14.97
2019-05-30T02:34:30.882Z,14.95
2019-05-30T02:35:12.789Z,15.03
2019-05-30T02:35:51.693Z,14.97
2019-05-30T02:36:32.104Z,14.95
2019-05-30T02:37:52.907Z,15.04
2019-05-30T02:38:33.316Z,14.97
2019-05-30T02:39:13.675Z,15.01
2019-05-30T02:39:54.055Z,15
2019-05-30T02:40:34.453Z,15.04
2019-05-30T02:41:14.854Z,14.98
2019-05-30T02:41:55.243Z,15.13
2019-05-30T02:42:35.666Z,15.04
2019-05-30T02:43:16.099Z,15.12
2019-05-30T02:43:56.529Z,15.01
2019-05-30T02:44:36.970Z,15.01
2019-05-30T02:45:17.377Z,14.98
2019-05-30T02:45:57.829Z,15
2019-05-30T02:48:12.120Z,15.12
2019-05-30T02:48:58.581Z,15.09
2019-05-30T02:49:31.337Z,15.15
2019-05-30T02:50:13.845Z,15.15
2019-05-30T02:50:52.202Z,15.13
2019-05-30T02:51:32.631Z,15.16
2019-05-30T02:52:13.173Z,15.15
2019-05-30T02:52:53.476Z,15.22
2019-05-30T02:53:33.891Z,15.16
2019-05-30T02:54:14.317Z,15.2
2019-05-30T02:54:54.739Z,15.23
2019-05-30T02:55:35.163Z,15.18
2019-05-30T02:56:15.585Z,15.23
2019-05-30T02:56:56.026Z,15.2
2019-05-30T02:57:36.440Z,15.22
2019-05-30T02:58:16.856Z,15.2
2019-05-30T02:58:57.263Z,15.23
2019-05-30T03:00:18.400Z,15.16
2019-05-30T03:00:58.513Z,15.19
2019-05-30T03:01:58.754Z,15.22
2019-05-30T03:02:19.365Z,15.19
2019-05-30T03:03:01.751Z,15.23
2019-05-30T03:03:40.185Z,15.23
2019-05-30T03:04:20.613Z,15.18
2019-05-30T03:05:01.552Z,15.27
2019-05-30T03:05:41.483Z,15.34
2019-05-30T03:06:21.905Z,15.35
2019-05-30T03:07:03.866Z,15.35
2019-05-30T03:07:42.741Z,15.31
2019-05-30T03:08:23.173Z,15.31
2019-05-30T03:09:03.919Z,15.35
2019-05-30T03:09:44.012Z,15.46
2019-05-30T03:10:24.441Z,15.41
2019-05-30T03:11:07.038Z,15.41
2019-05-30T03:11:45.262Z,15.41
2019-05-30T03:12:25.686Z,15.4
2019-05-30T03:13:06.710Z,15.44
2019-05-30T03:13:46.540Z,15.41
2019-05-30T03:14:26.976Z,15.51
2019-05-30T03:15:09.469Z,15.53
2019-05-30T03:15:47.814Z,15.51
2019-05-30T03:16:28.251Z,15.53
2019-05-30T03:17:49.073Z,15.58
2019-05-30T03:18:29.504Z,15.58
2019-05-30T03:19:10.964Z,15.6
2019-05-30T03:21:08.520Z,15.62
2019-05-30T03:21:47.888Z,15.66
2019-05-30T03:22:28.315Z,15.62
2019-05-30T03:23:10.365Z,15.71
2019-05-30T03:23:49.154Z,15.71
2019-05-30T03:24:29.533Z,15.68
2019-05-30T03:25:12.515Z,15.68
2019-05-30T03:25:50.372Z,15.7
2019-05-30T03:26:30.781Z,15.71
2019-05-30T03:27:12.238Z,15.68
2019-05-30T03:28:58.687Z,15.73
2019-05-30T03:29:39.083Z,15.84
2019-05-30T03:30:27.151Z,15.88
2019-05-30T03:30:59.942Z,15.8
2019-05-30T03:31:40.396Z,15.81
2019-05-30T03:34:33.376Z,15.85
2019-05-30T03:35:23.618Z,15.84
2019-05-30T03:35:54.222Z,15.78
2019-05-30T03:36:34.639Z,15.88
2019-05-30T03:37:26.392Z,15.84
2019-05-30T03:37:55.488Z,15.71
2019-05-30T03:38:35.919Z,15.74
2019-05-30T03:39:16.347Z,15.86
2019-05-30T03:39:56.779Z,15.76
2019-05-30T03:40:37.205Z,15.77
2019-05-30T03:41:17.628Z,15.8
2019-05-30T03:42:38.508Z,15.84
2019-05-30T03:43:18.922Z,15.78
2019-05-30T03:43:59.362Z,15.78
2019-05-30T03:44:39.753Z,15.81
2019-05-30T03:45:20.181Z,15.74
2019-05-30T03:46:00.604Z,15.74
2019-05-30T03:46:41.020Z,15.71
2019-05-30T03:47:21.451Z,15.66
2019-05-30T03:48:01.842Z,15.62
2019-05-30T03:48:42.259Z,15.55
2019-05-30T03:49:22.679Z,15.53
2019-05-30T03:50:05.102Z,15.46
2019-05-30T03:50:43.528Z,15.44
2019-05-30T03:51:23.942Z,15.4
2019-05-30T03:52:05.440Z,15.41
2019-05-30T03:52:44.850Z,15.35
2019-05-30T03:53:25.242Z,15.43
2019-05-30T03:54:07.582Z,15.37
2019-05-30T03:54:46.101Z,15.35
2019-05-30T03:55:26.441Z,15.33
2019-05-30T03:56:09.013Z,15.19
2019-05-30T03:56:47.276Z,15.22
2019-05-30T03:58:09.931Z,15.18
2019-05-30T03:58:48.531Z,15.15
2019-05-30T03:59:28.955Z,15.15
2019-05-30T04:00:51.041Z,15.19
2019-05-30T04:01:30.158Z,15.11
2019-05-30T04:02:11.678Z,15.05
2019-05-30T04:02:56.950Z,15.15
2019-05-30T04:03:31.384Z,15.11
2019-05-30T04:04:13.794Z,15
2019-05-30T04:04:52.142Z,15
2019-05-30T04:05:32.562Z,15.11
2019-05-30T04:06:14.402Z,14.98
2019-05-30T04:06:53.378Z,15.01
2019-05-30T04:07:33.759Z,15.04
2019-05-30T04:08:16.031Z,15.05
2019-05-30T04:08:54.594Z,15.07
2019-05-30T04:09:34.999Z,15.11
2019-05-30T04:10:15.762Z,15.05
2019-05-30T04:10:55.853Z,15.09
2019-05-30T04:11:36.286Z,15.15
2019-05-30T04:12:16.915Z,15.15
2019-05-30T04:12:57.125Z,15.19
2019-05-30T04:13:37.536Z,15.18
2019-05-30T04:14:19.326Z,15.12
2019-05-30T04:14:58.365Z,15.19
2019-05-30T04:15:38.764Z,15.22
2019-05-30T04:16:19.741Z,15.13
2019-05-30T04:16:59.652Z,15.13
2019-05-30T04:17:40.068Z,15.05
2019-05-30T04:18:20.466Z,15.16
2019-05-30T04:19:00.876Z,15.13
2019-05-30T04:19:42.505Z,15.04
2019-05-30T04:20:23.253Z,15.15
2019-05-30T04:21:03.218Z,15.05
2019-05-30T04:21:43.573Z,15.07
2019-05-30T04:22:23.991Z,15.11
2019-05-30T04:23:04.415Z,15.04
2019-05-30T04:23:44.862Z,15.04
2019-05-30T04:24:25.296Z,15.04
2019-05-30T04:25:05.692Z,15.13
2019-05-30T04:26:26.549Z,15.03
2019-05-30T04:27:07.950Z,15.15
2019-05-30T05:07:38.299Z,14.63
2019-05-30T05:08:19.882Z,14.61
2019-05-30T05:08:59.067Z,14.64
2019-05-30T05:09:39.496Z,14.66
2019-05-30T05:10:20.331Z,14.6
2019-05-30T05:11:00.305Z,14.64
2019-05-30T05:11:40.724Z,14.66
2019-05-30T05:12:22.408Z,14.61
2019-05-30T05:13:01.566Z,14.67
2019-05-30T05:13:41.975Z,14.75
2019-05-30T05:14:22.787Z,14.69
2019-05-30T05:15:02.734Z,14.64
2019-05-30T05:15:43.124Z,14.67
2019-05-30T05:16:34.748Z,14.75
2019-05-30T05:17:03.912Z,14.71
2019-05-30T05:17:44.307Z,14.75
2019-05-30T05:18:24.709Z,14.87
2019-05-30T05:19:05.119Z,14.93
2019-05-30T05:19:45.524Z,14.93
2019-05-30T05:20:25.914Z,15
2019-05-30T05:21:06.317Z,14.95
2019-05-30T05:21:46.703Z,14.97
2019-05-30T05:22:27.092Z,15.01
2019-05-30T05:23:47.930Z,15.15
2019-05-30T05:24:28.333Z,15.23
2019-05-30T05:25:08.757Z,15.16
2019-05-30T05:26:00.138Z,15.28
2019-05-30T05:26:29.541Z,15.2
2019-05-30T05:27:10.182Z,15.22
2019-05-30T05:27:50.366Z,15.22
2019-05-30T05:28:30.755Z,15.37
2019-05-30T05:29:11.143Z,15.33
2019-05-30T05:29:51.535Z,15.33
2019-05-30T05:30:31.964Z,15.38
2019-05-30T05:31:12.386Z,15.35
2019-05-30T05:31:52.806Z,15.4
2019-05-30T05:32:33.221Z,15.37
2019-05-30T05:33:14.515Z,15.44
2019-05-30T05:33:56.937Z,15.4
2019-05-30T05:34:34.453Z,15.52
2019-05-30T05:35:14.851Z,15.51
2019-05-30T05:35:55.229Z,15.56
2019-05-30T05:36:35.602Z,15.55
2019-05-30T05:37:16.997Z,15.48
2019-05-30T05:38:36.778Z,15.55
2019-05-30T05:39:18.068Z,15.56
2019-05-30T05:39:57.613Z,15.52
2019-05-30T05:40:37.968Z,15.52
2019-05-30T05:41:18.375Z,15.6
2019-05-30T05:41:58.770Z,15.58
2019-05-30T05:42:39.141Z,15.62
2019-05-30T05:43:20.270Z,15.58
2019-05-30T05:43:59.970Z,15.6
2019-05-30T05:44:41.319Z,15.71
2019-05-30T05:45:22.771Z,15.71
2019-05-30T05:46:02.130Z,15.71
2019-05-30T05:46:42.542Z,15.81
2019-05-30T05:47:22.951Z,15.84
2019-05-30T05:48:03.384Z,15.81
2019-05-30T05:48:43.805Z,15.84
2019-05-30T05:49:24.869Z,15.77
2019-05-30T05:50:04.638Z,15.81
2019-05-30T05:50:45.056Z,15.81
2019-05-30T05:51:25.482Z,15.95
2019-05-30T05:52:05.872Z,15.95
2019-05-30T05:52:46.267Z,15.92
2019-05-30T05:53:26.629Z,15.96
2019-05-30T05:54:07.035Z,16.01
2019-05-30T05:54:47.418Z,16.07
2019-05-30T05:56:08.261Z,16.11
2019-05-30T05:56:48.666Z,16.13
2019-05-30T05:57:29.181Z,16.08
2019-05-30T05:58:09.458Z,16.07
2019-05-30T06:00:23.257Z,16.07
2019-05-30T06:01:02.471Z,16.08
2019-05-30T06:01:42.880Z,16.08
2019-05-30T06:02:23.363Z,16.04
2019-05-30T06:03:03.713Z,16.1
2019-05-30T06:03:44.143Z,16.22
2019-05-30T06:04:25.215Z,16.22
2019-05-30T06:05:04.990Z,16.22
2019-05-30T06:05:52.824Z,16.22
2019-05-30T06:06:25.839Z,16.23
2019-05-30T06:07:06.224Z,16.25
2019-05-30T06:08:27.679Z,16.27
2019-05-30T06:09:07.453Z,16.26
2019-05-30T06:09:47.880Z,16.26
2019-05-30T06:10:28.301Z,16.22
2019-05-30T06:11:08.719Z,16.23
2019-05-30T06:11:49.262Z,16.18
2019-05-30T06:12:29.507Z,16.17
2019-05-30T06:13:12.673Z,16.18
2019-05-30T06:13:53.074Z,16.22
2019-05-30T06:14:33.470Z,16.26
2019-05-30T06:15:13.858Z,16.25
2019-05-30T06:15:54.252Z,16.26
2019-05-30T06:16:34.653Z,16.18
2019-05-30T06:17:15.008Z,16.3
2019-05-30T06:17:55.380Z,16.25
2019-05-30T06:18:35.785Z,16.27
2019-05-30T06:19:17.128Z,16.32
2019-05-30T06:19:56.596Z,16.22
2019-05-30T06:20:37.018Z,16.18
2019-05-30T06:21:17.439Z,16.26
2019-05-30T06:21:57.848Z,16.3
2019-05-30T06:22:38.267Z,16.27
2019-05-30T06:23:59.081Z,16.37
2019-05-30T06:24:39.465Z,16.36
2019-05-30T06:25:22.186Z,16.47
2019-05-30T06:26:00.267Z,16.37
2019-05-30T06:26:40.674Z,16.5
2019-05-30T06:27:21.872Z,16.5
2019-05-30T06:28:01.502Z,16.41
2019-05-30T06:28:41.905Z,16.52
2019-05-30T06:29:22.343Z,16.51
2019-05-30T06:30:02.764Z,16.5
2019-05-30T06:30:43.198Z,16.55
2019-05-30T06:31:26.472Z,16.59
2019-05-30T06:32:05.757Z,16.54
2019-05-30T06:32:46.142Z,16.62
2019-05-30T06:33:27.109Z,16.67
2019-05-30T06:34:06.928Z,16.65
2019-05-30T06:34:47.316Z,16.6
2019-05-30T06:35:29.616Z,16.62
2019-05-30T06:36:10.007Z,16.63
2019-05-30T06:36:50.426Z,16.59
2019-05-30T06:37:30.852Z,16.54
2019-05-30T06:38:11.271Z,16.55
2019-05-30T06:41:31.374Z,16.73
2019-05-30T06:42:11.774Z,16.82
2019-05-30T06:42:52.193Z,16.84
2019-05-30T06:43:32.597Z,16.85
2019-05-30T06:44:13.018Z,16.82
2019-05-30T06:44:53.434Z,16.91
2019-05-30T06:45:33.851Z,16.88
2019-05-30T06:46:14.294Z,16.92
2019-05-30T06:46:54.713Z,16.87
2019-05-30T06:47:35.141Z,16.98
2019-05-30T06:48:15.551Z,16.91
2019-05-30T06:48:55.980Z,16.92
2019-05-30T06:49:36.373Z,16.98
2019-05-30T06:50:16.785Z,16.96
2019-05-30T06:51:37.611Z,17.03
2019-05-30T06:52:18.028Z,16.92
2019-05-30T06:52:58.452Z,16.95
2019-05-30T06:53:38.863Z,16.98
2019-05-30T06:54:19.283Z,17.09
2019-05-30T06:54:59.705Z,17.14
2019-05-30T06:55:40.138Z,17.1
2019-05-30T06:56:21.161Z,17.14
2019-05-30T06:57:00.979Z,17.2
2019-05-30T06:57:41.412Z,17.14
2019-05-30T06:58:38.684Z,17.1
2019-05-30T06:59:02.282Z,17.2
2019-05-30T06:59:42.717Z,17.15
2019-05-30T07:00:23.644Z,17.17
2019-05-30T07:01:03.539Z,17.12
2019-05-30T07:01:43.969Z,17.17
2019-05-30T07:02:24.478Z,17.18
2019-05-30T07:03:04.786Z,17.1
2019-05-30T07:03:45.339Z,17.17
2019-05-30T07:04:27.340Z,17.17
2019-05-30T07:05:06.531Z,17.06
2019-05-30T07:05:46.909Z,17.09
2019-05-30T07:06:27.428Z,16.96
2019-05-30T07:07:07.386Z,17.1
2019-05-30T07:07:47.762Z,17.09
2019-05-30T07:09:08.419Z,17.14
2019-05-30T07:09:48.814Z,17.2
2019-05-30T07:10:29.205Z,17.15
2019-05-30T07:11:09.573Z,17.12
2019-05-30T07:11:49.942Z,17.12
2019-05-30T07:12:31.151Z,17.12
2019-05-30T07:13:10.739Z,17.12
2019-05-30T07:13:51.173Z,17.15
2019-05-30T07:14:31.572Z,17.12
2019-05-30T07:15:12.017Z,17.22
2019-05-30T07:15:52.471Z,17.25
2019-05-30T07:16:33.537Z,17.27
2019-05-30T07:17:13.236Z,17.28
2019-05-30T07:17:53.671Z,17.36
2019-05-30T07:18:36.562Z,17.27
2019-05-30T07:19:14.482Z,17.4
2019-05-30T07:19:54.904Z,17.38
2019-05-30T07:20:35.351Z,17.39
2019-05-30T07:21:15.727Z,17.39
2019-05-30T07:21:56.097Z,17.4
2019-05-30T07:22:36.500Z,17.4
2019-05-30T07:23:16.927Z,17.39
2019-05-30T07:23:57.343Z,17.39
2019-05-30T07:24:37.773Z,17.43
2019-05-30T07:25:18.209Z,17.43
2019-05-30T07:26:39.084Z,17.54
2019-05-30T07:27:19.470Z,17.62
2019-05-30T07:27:59.862Z,17.68
2019-05-30T07:28:40.265Z,17.63
2019-05-30T07:29:20.661Z,17.68
2019-05-30T07:30:01.065Z,17.77
2019-05-30T07:30:41.483Z,17.86
2019-05-30T07:31:21.896Z,17.81
2019-05-30T07:32:02.288Z,17.99
2019-05-30T07:32:42.691Z,18.01
2019-05-30T07:33:23.926Z,18.01
2019-05-30T07:34:03.510Z,17.96
2019-05-30T07:34:45.968Z,18.02
2019-05-30T07:35:24.221Z,18.1
2019-05-30T07:36:04.644Z,18.09
2019-05-30T07:36:45.079Z,18.21
2019-05-30T07:37:26.094Z,18.19
2019-05-30T07:38:05.971Z,18.25
2019-05-30T07:38:46.364Z,18.34
2019-05-30T07:39:29.679Z,18.28
2019-05-30T07:40:07.201Z,18.31
2019-05-30T07:40:47.631Z,18.31
2019-05-30T07:41:28.693Z,18.35
2019-05-30T07:42:08.511Z,18.35
2019-05-30T07:42:48.928Z,18.42
2019-05-30T07:44:09.783Z,18.53
2019-05-30T07:44:50.214Z,18.59
2019-05-30T07:45:31.041Z,18.54
2019-05-30T07:46:11.081Z,18.53
2019-05-30T07:46:51.443Z,18.46
2019-05-30T07:47:32.128Z,18.41
2019-05-30T07:48:12.265Z,18.41
2019-05-30T07:48:52.649Z,18.34
2019-05-30T07:49:33.372Z,18.31
2019-05-30T07:50:13.455Z,18.32
2019-05-30T07:50:53.847Z,18.35
2019-05-30T07:51:34.652Z,18.32
2019-05-30T07:52:14.700Z,18.23
2019-05-30T07:52:55.123Z,18.29
2019-05-30T07:53:35.552Z,18.23
2019-05-30T07:54:15.966Z,18.25
2019-05-30T07:54:56.328Z,18.23
2019-05-30T07:55:36.761Z,18.34
2019-05-30T07:56:17.130Z,18.34
2019-05-30T07:56:57.565Z,18.36
2019-05-30T07:57:40.658Z,18.34
2019-05-30T07:58:18.362Z,18.38
2019-05-30T07:58:58.767Z,18.41
2019-05-30T07:59:39.190Z,18.31
2019-05-30T08:00:19.605Z,18.34
2019-05-30T08:01:40.434Z,18.36
2019-05-30T08:02:20.851Z,18.36
2019-05-30T08:03:01.264Z,18.42
2019-05-30T08:03:41.693Z,18.31
2019-05-30T08:04:22.078Z,18.23
2019-05-30T08:05:02.511Z,18.31
2019-05-30T08:05:42.915Z,18.29
2019-05-30T08:06:23.360Z,18.21
2019-05-30T08:07:03.787Z,18.28
2019-05-30T08:07:44.207Z,18.29
2019-05-30T08:08:24.646Z,18.29
2019-05-30T08:09:05.071Z,18.25
2019-05-30T08:09:45.479Z,18.34
2019-05-30T08:10:25.910Z,18.31
2019-05-30T08:11:09.713Z,18.31
2019-05-30T08:11:46.740Z,18.35
2019-05-30T08:12:27.968Z,18.31
2019-05-30T08:13:07.572Z,18.28
2019-05-30T08:13:47.959Z,18.38
2019-05-30T08:14:28.995Z,18.38
2019-05-30T08:15:08.755Z,18.41
2019-05-30T08:15:49.142Z,18.51
2019-05-30T08:16:29.559Z,18.51
2019-05-30T08:17:09.956Z,18.64
2019-05-30T08:17:50.382Z,18.64
2019-05-30T08:18:31.631Z,18.71
2019-05-30T08:19:11.221Z,18.76
2019-05-30T08:19:51.657Z,18.71
2019-05-30T08:20:32.072Z,18.76
2019-05-30T08:21:12.488Z,18.83
2019-05-30T08:21:52.888Z,18.83
2019-05-30T08:22:34.137Z,18.79
2019-05-30T08:23:13.719Z,18.86
2019-05-30T08:23:54.123Z,18.83
2019-05-30T08:24:34.588Z,18.69
2019-05-30T08:25:14.969Z,18.78
2019-05-30T08:25:55.365Z,18.83
2019-05-30T08:26:36.367Z,18.82
2019-05-30T08:30:22.598Z,18.91
2019-05-30T08:31:03.001Z,18.9
2019-05-30T08:31:43.435Z,19.01
2019-05-30T08:32:23.875Z,18.99
2019-05-30T08:33:04.284Z,19.1
2019-05-30T08:33:47.275Z,19.13
2019-05-30T08:34:25.158Z,19.27
2019-05-30T08:35:05.567Z,19.32
2019-05-30T08:35:49.739Z,19.34
2019-05-30T08:36:26.476Z,19.38
2019-05-30T08:37:06.889Z,19.46
2019-05-30T08:37:47.310Z,19.52
2019-05-30T08:38:28.928Z,19.58
2019-05-30T08:39:08.155Z,19.65
2019-05-30T08:39:48.580Z,19.61
2019-05-30T08:40:29.144Z,19.67
2019-05-30T08:41:09.678Z,19.72
2019-05-30T08:41:50.101Z,19.8
2019-05-30T08:42:31.325Z,19.72
2019-05-30T08:43:10.973Z,19.89
2019-05-30T08:43:51.371Z,19.85
2019-05-30T08:44:31.800Z,19.98
2019-05-30T08:45:12.208Z,20.07
2019-05-30T08:45:52.641Z,20.13
2019-05-30T08:46:33.705Z,20.16
2019-05-30T08:47:13.514Z,20.26
2019-05-30T08:47:53.884Z,20.34
2019-05-30T08:48:34.536Z,20.41
2019-05-30T08:49:14.730Z,20.42
2019-05-30T08:49:55.162Z,20.48
2019-05-30T08:50:36.429Z,20.58
2019-05-30T08:51:15.956Z,20.64
2019-05-30T08:51:56.355Z,20.68
2019-05-30T08:52:36.755Z,20.78
2019-05-30T08:53:17.150Z,20.83
2019-05-30T08:53:57.569Z,20.91
2019-05-30T08:54:38.516Z,20.9
2019-05-30T08:55:18.345Z,20.88
2019-05-30T08:55:58.760Z,20.83
2019-05-30T08:56:39.183Z,20.85
2019-05-30T08:57:19.603Z,20.83
2019-05-30T08:58:00.021Z,20.71
2019-05-30T08:58:40.898Z,20.71
2019-05-30T08:59:20.839Z,20.75
2019-05-30T09:00:01.203Z,20.79
2019-05-30T09:00:41.631Z,20.82
2019-05-30T09:01:22.033Z,20.81
2019-05-30T09:02:02.388Z,20.79
2019-05-30T09:02:43.022Z,20.85
2019-05-30T09:03:23.229Z,20.9
2019-05-30T09:04:03.639Z,20.88
2019-05-30T09:04:44.088Z,20.97
2019-05-30T09:06:56.664Z,21.13
2019-05-30T09:07:38.243Z,21.16
2019-05-30T09:08:17.517Z,21.13
2019-05-30T09:08:57.918Z,21.15
2019-05-30T09:09:38.322Z,21.16
2019-05-30T09:14:29.519Z,21.37
2019-05-30T09:15:09.864Z,21.37
2019-05-30T09:15:50.289Z,21.49
2019-05-30T09:16:30.763Z,21.55
2019-05-30T09:17:11.170Z,21.59
2019-05-30T09:17:51.589Z,21.66
2019-05-30T09:18:31.963Z,21.59
2019-05-30T09:19:12.370Z,21.75
2019-05-30T09:19:52.734Z,21.68
2019-05-30T09:20:33.123Z,21.86
2019-05-30T09:21:13.655Z,21.82
2019-05-30T09:21:54.002Z,21.9
2019-05-30T09:22:34.376Z,21.85
2019-05-30T09:23:14.768Z,21.71
2019-05-30T09:23:58.776Z,21.82
2019-05-30T09:24:35.628Z,21.9
2019-05-30T09:25:16.017Z,21.9
2019-05-30T09:25:56.483Z,22.01
2019-05-30T09:26:38.405Z,22.06
2019-05-30T09:27:17.330Z,22.08
2019-05-30T09:27:57.764Z,22.11
2019-05-30T09:28:39.320Z,22.23
2019-05-30T09:29:18.608Z,22.3
2019-05-30T09:29:58.990Z,22.41
2019-05-30T09:30:39.929Z,22.51
2019-05-30T09:31:19.821Z,22.67
2019-05-30T09:32:00.334Z,22.67
2019-05-30T09:32:41.282Z,22.72
2019-05-30T09:33:21.139Z,22.72
2019-05-30T09:34:01.684Z,22.79
2019-05-30T09:34:43.203Z,22.86
2019-05-30T09:35:22.406Z,22.96
2019-05-30T09:36:12.451Z,22.91
2019-05-30T09:36:43.218Z,22.94
2019-05-30T09:37:23.618Z,22.93
2019-05-30T09:38:04.011Z,23.07
2019-05-30T09:38:45.440Z,23
2019-05-30T09:39:24.793Z,23.07
2019-05-30T09:40:05.259Z,23.09
2019-05-30T09:40:45.657Z,23.07
2019-05-30T09:41:26.004Z,23.06
2019-05-30T09:42:06.423Z,23.03
2019-05-30T09:42:48.255Z,23.09
2019-05-30T09:43:27.193Z,23.06
2019-05-30T09:44:07.544Z,23.04
2019-05-30T09:44:50.531Z,23.04
2019-05-30T09:45:28.342Z,23.09
2019-05-30T09:46:08.726Z,23.04
2019-05-30T09:46:50.395Z,22.99
2019-05-30T09:47:29.616Z,22.94
2019-05-30T09:48:09.987Z,22.89
2019-05-30T09:48:51.677Z,22.78
2019-05-30T09:49:30.864Z,22.82
2019-05-30T09:52:47.102Z,22.76
2019-05-30T09:53:26.372Z,22.67
2019-05-30T09:54:06.785Z,22.61
2019-05-30T09:54:48.048Z,22.49
2019-05-30T09:55:27.614Z,22.45
2019-05-30T09:56:08.006Z,22.59
2019-05-30T09:56:48.566Z,22.51
2019-05-30T10:00:03.014Z,22.52
2019-05-30T10:00:44.854Z,22.61
2019-05-30T10:05:48.627Z,22.51
2019-05-30T10:06:29.687Z,22.59
2019-05-30T10:07:08.660Z,22.59
2019-05-30T10:07:49.282Z,22.57
2019-05-30T10:08:29.509Z,22.56
2019-05-30T10:09:10.109Z,22.51
2019-05-30T10:09:50.931Z,22.52
2019-05-30T10:10:30.886Z,22.59
2019-05-30T10:11:11.335Z,22.57